Beatty, Nevada
Current Conditions -  °F | °C
As of 3:52 PM on Sunday 21 Dec 2014 (Local Time) from KDRA Reporting Station
Clear Clear  
Wind Chill: 50°   Ceiling: Unl
Heat Index: 50°   Visibility: 10mi
Dew Point: 38°   Wind: 0mph
Humidity: 63%   Direction: NA
Pressure: 30.11"   Gusts: NA
Location:  36.91°N, 116.76°W
Report Text: KDRA 212352Z AUTO 00000KT 10SM CLR 10/03 A3011 RMK AO2 SLP189 T01000033 10117 20067 55004 $
Loading
Personal Weather Stations






























Interactive Weather Map New forecast layout! Learn more

10-Day Weather Forecast

Advertisements
Track Severe Weather on mobile